Time;durP1;ratioP1;P1;durP2;ratioP2;P2;SDS_P1;SDS_P2;PMS_P1;PMS_P2;Temp;Humidity;BMP_temperature;BMP_pressure;BME280_temperature;BME280_humidity;BME280_pressure;Samples;Min_cycle;Max_cycle;Signal;HPM_P1;HPM_P2
2023/11/09 00:00:31;;;;;;;4.88;1.25;;;25.50;30.90;;;;;;4969931;28;20436;-61
2023/11/09 00:02:57;;;;;;;6.88;1.58;;;25.50;30.80;;;;;;4970016;28;20113;-61
2023/11/09 00:05:24;;;;;;;7.25;1.45;;;25.40;29.70;;;;;;4967249;28;20075;-61
2023/11/09 00:07:50;;;;;;;12.82;1.92;;;25.40;29.80;;;;;;4964115;28;20063;-62
2023/11/09 00:10:17;;;;;;;9.93;1.40;;;25.50;30.00;;;;;;4969441;28;20072;-61
2023/11/09 00:12:44;;;;;;;4.45;1.30;;;25.40;30.10;;;;;;4965980;28;20068;-61
2023/11/09 00:15:11;;;;;;;10.70;1.35;;;25.20;30.70;;;;;;4967156;28;20454;-63
2023/11/09 00:17:37;;;;;;;10.20;1.63;;;25.10;30.50;;;;;;4970300;28;20092;-61
2023/11/09 00:20:06;;;;;;;5.70;1.30;;;25.10;30.60;;;;;;4968071;28;20125;-61
2023/11/09 00:22:33;;;;;;;8.77;1.60;;;25.00;30.40;;;;;;4969856;28;20094;-61
2023/11/09 00:24:59;;;;;;;11.90;1.50;;;25.00;30.30;;;;;;4968528;28;20491;-62
2023/11/09 00:27:26;;;;;;;15.60;1.27;;;24.80;30.60;;;;;;4969076;28;20081;-61
2023/11/09 00:29:52;;;;;;;16.08;1.58;;;24.70;31.10;;;;;;4967617;28;20114;-61
2023/11/09 00:32:19;;;;;;;15.43;1.80;;;24.60;31.30;;;;;;4968583;28;20069;-61
2023/11/09 00:34:46;;;;;;;16.67;2.00;;;24.40;31.60;;;;;;4970106;28;20087;-62
2023/11/09 00:37:12;;;;;;;17.25;2.08;;;24.30;32.20;;;;;;4969214;28;20105;-63
2023/11/09 00:39:39;;;;;;;11.15;1.90;;;24.20;32.60;;;;;;4971466;28;20597;-65
2023/11/09 00:42:07;;;;;;;14.40;1.75;;;24.10;32.80;;;;;;4970087;28;20452;-66
2023/11/09 00:44:34;;;;;;;15.10;2.25;;;24.00;33.20;;;;;;4968656;28;20085;-63
2023/11/09 00:47:03;;;;;;;18.58;1.95;;;23.90;33.50;;;;;;4969018;28;20163;-63
2023/11/09 00:49:32;;;;;;;12.07;1.90;;;23.80;33.90;;;;;;4970120;28;20095;-64
2023/11/09 00:51:59;;;;;;;10.32;1.40;;;23.80;34.50;;;;;;4968545;28;20073;-64
2023/11/09 00:54:25;;;;;;;14.18;2.22;;;23.70;34.70;;;;;;4968170;28;20156;-64
2023/11/09 00:56:53;;;;;;;14.50;2.17;;;23.60;35.70;;;;;;4968224;28;20073;-64
2023/11/09 00:59:19;;;;;;;13.05;1.75;;;23.60;35.40;;;;;;4972232;28;20066;-63
2023/11/09 01:01:46;;;;;;;22.40;2.45;;;23.60;35.60;;;;;;4967442;28;20571;-63
2023/11/09 01:04:13;;;;;;;16.48;2.97;;;23.50;35.70;;;;;;4968554;28;20517;-66
2023/11/09 01:06:39;;;;;;;26.20;3.08;;;23.40;35.80;;;;;;4967150;28;20081;-64
2023/11/09 01:09:06;;;;;;;21.50;3.20;;;23.30;36.10;;;;;;4968650;28;20111;-62
2023/11/09 01:11:32;;;;;;;15.15;3.05;;;23.30;36.30;;;;;;4965369;28;20540;-64
2023/11/09 01:13:59;;;;;;;28.50;3.35;;;23.30;37.20;;;;;;4969426;28;20141;-64
2023/11/09 01:16:25;;;;;;;21.23;2.63;;;23.20;36.80;;;;;;4969207;28;20088;-65
2023/11/09 01:18:52;;;;;;;18.42;3.20;;;23.10;37.10;;;;;;4965162;28;20087;-66
2023/11/09 01:21:18;;;;;;;17.35;3.20;;;23.00;37.30;;;;;;4968325;28;20120;-63
2023/11/09 01:23:45;;;;;;;19.85;2.95;;;22.90;37.60;;;;;;4969560;28;20619;-64
2023/11/09 01:26:13;;;;;;;22.80;3.22;;;22.90;38.00;;;;;;4966219;28;20089;-64
2023/11/09 01:28:40;;;;;;;26.38;2.58;;;22.80;38.30;;;;;;4968857;28;20097;-64
2023/11/09 01:31:06;;;;;;;24.98;2.80;;;22.80;38.50;;;;;;4966578;28;20077;-63
2023/11/09 01:33:33;;;;;;;16.85;2.50;;;22.70;38.70;;;;;;4963464;28;20625;-63
2023/11/09 01:36:00;;;;;;;15.05;1.98;;;22.60;38.70;;;;;;4967627;28;20092;-63
2023/11/09 01:38:27;;;;;;;30.35;3.05;;;22.60;38.90;;;;;;4966250;28;20079;-63
2023/11/09 01:40:54;;;;;;;15.70;2.35;;;22.50;38.90;;;;;;4965795;28;20087;-65
2023/11/09 01:43:21;;;;;;;31.40;5.32;;;22.50;38.90;;;;;;4965822;28;20090;-63
2023/11/09 01:45:51;;;;;;;26.05;3.70;;;22.50;39.20;;;;;;4969171;28;20126;-65
2023/11/09 01:48:22;;;;;;;25.48;3.92;;;22.40;39.20;;;;;;4968000;28;20078;-63
2023/11/09 01:50:51;;;;;;;21.10;3.50;;;22.30;39.40;;;;;;4966480;28;20079;-64
2023/11/09 01:53:18;;;;;;;23.33;3.70;;;22.30;39.50;;;;;;4967219;28;20506;-66
2023/11/09 01:55:48;;;;;;;26.48;3.40;;;22.20;39.70;;;;;;4969179;28;20785;-67
2023/11/09 01:58:15;;;;;;;24.98;3.63;;;22.20;40.00;;;;;;4967160;28;20256;-67
2023/11/09 02:00:44;;;;;;;37.72;4.22;;;22.10;40.00;;;;;;4966451;28;20081;-67
2023/11/09 02:03:12;;;;;;;28.15;3.50;;;22.10;40.00;;;;;;4965876;28;20095;-66
2023/11/09 02:05:39;;;;;;;18.75;3.65;;;22.00;40.40;;;;;;4967629;28;20070;-65
2023/11/09 02:08:06;;;;;;;22.90;4.65;;;21.90;40.20;;;;;;4967423;28;20507;-66
2023/11/09 02:10:35;;;;;;;27.02;4.30;;;21.90;40.50;;;;;;4963860;28;20556;-66
2023/11/09 02:13:02;;;;;;;25.50;5.10;;;21.80;40.90;;;;;;4967551;28;20087;-64
2023/11/09 02:15:29;;;;;;;31.23;5.93;;;21.80;41.00;;;;;;4967578;28;20168;-65
2023/11/09 02:17:56;;;;;;;28.23;5.95;;;21.70;41.10;;;;;;4967301;28;20085;-65
2023/11/09 02:20:23;;;;;;;23.10;5.80;;;21.60;41.20;;;;;;4967825;28;20540;-63
2023/11/09 02:22:55;;;;;;;25.05;6.30;;;21.60;41.40;;;;;;4964128;28;20102;-63
2023/11/09 02:25:23;;;;;;;37.58;5.80;;;21.50;41.40;;;;;;4963875;28;20078;-64
2023/11/09 02:27:50;;;;;;;25.23;5.13;;;21.50;41.60;;;;;;4965085;28;20193;-67
2023/11/09 02:30:16;;;;;;;33.47;4.90;;;21.40;41.80;;;;;;4962793;28;20147;-63
2023/11/09 02:32:43;;;;;;;38.25;5.07;;;21.30;42.40;;;;;;4961284;28;20084;-64
2023/11/09 02:35:09;;;;;;;24.45;5.05;;;21.30;42.00;;;;;;4964120;28;20797;-64
2023/11/09 02:37:39;;;;;;;30.98;6.80;;;21.20;42.00;;;;;;4964470;28;20086;-63
2023/11/09 02:40:08;;;;;;;34.58;6.93;;;21.20;42.20;;;;;;4971487;28;20075;-64
2023/11/09 02:42:34;;;;;;;29.73;6.22;;;21.20;42.30;;;;;;4972223;28;20574;-64
2023/11/09 02:45:01;;;;;;;38.58;6.38;;;21.10;42.70;;;;;;4967372;28;20133;-63
2023/11/09 02:47:27;;;;;;;50.58;6.68;;;21.10;42.70;;;;;;4972215;28;20092;-65
2023/11/09 02:49:54;;;;;;;38.78;6.15;;;20.90;43.00;;;;;;4970982;28;20075;-64
2023/11/09 02:52:20;;;;;;;42.78;6.50;;;20.90;42.80;;;;;;4970581;28;20503;-65
2023/11/09 02:54:46;;;;;;;37.95;6.10;;;20.90;43.50;;;;;;4971626;28;20090;-65
2023/11/09 02:57:13;;;;;;;46.17;6.28;;;20.90;43.20;;;;;;4971385;28;20460;-64
2023/11/09 02:59:43;;;;;;;34.47;5.50;;;20.80;43.20;;;;;;4972143;28;20582;-64
2023/11/09 03:02:10;;;;;;;32.42;5.40;;;20.70;43.40;;;;;;4971761;28;20086;-65
2023/11/09 03:04:38;;;;;;;33.78;5.47;;;20.70;43.30;;;;;;4968742;28;20502;-65
2023/11/09 03:07:09;;;;;;;46.90;7.15;;;20.60;43.50;;;;;;4971755;28;20110;-64
2023/11/09 03:09:37;;;;;;;40.05;6.72;;;20.60;43.40;;;;;;4970131;28;20087;-64
2023/11/09 03:12:06;;;;;;;29.40;6.22;;;20.50;43.20;;;;;;4971094;28;20111;-66
2023/11/09 03:14:34;;;;;;;37.88;5.95;;;20.50;43.50;;;;;;4972057;28;20555;-66
2023/11/09 03:17:09;;;;;;;38.30;5.60;;;20.40;43.40;;;;;;4970893;28;20087;-66
2023/11/09 03:19:36;;;;;;;33.20;6.35;;;20.40;43.70;;;;;;4971321;28;20746;-66
2023/11/09 03:22:04;;;;;;;36.13;5.15;;;20.30;43.70;;;;;;4972059;28;20100;-68
2023/11/09 03:24:33;;;;;;;30.20;5.03;;;20.30;43.50;;;;;;4971229;28;20175;-66
2023/11/09 03:27:01;;;;;;;22.75;4.95;;;20.20;43.30;;;;;;4970453;28;20099;-65
2023/11/09 03:29:27;;;;;;;28.40;4.40;;;20.20;43.70;;;;;;4970490;28;20080;-65
2023/11/09 03:31:54;;;;;;;41.53;4.80;;;20.20;43.60;;;;;;4969321;28;20431;-64
2023/11/09 03:34:20;;;;;;;24.83;3.50;;;20.10;43.60;;;;;;4970484;28;20087;-65
2023/11/09 03:36:47;;;;;;;20.33;3.13;;;20.10;43.50;;;;;;4969695;28;20081;-66
2023/11/09 03:39:13;;;;;;;36.22;3.40;;;20.10;42.90;;;;;;4970795;28;20134;-65
2023/11/09 03:41:43;;;;;;;28.10;3.25;;;20.00;42.10;;;;;;4971526;28;20566;-65
2023/11/09 03:44:09;;;;;;;18.45;2.95;;;20.00;42.00;;;;;;4970760;28;20196;-67
2023/11/09 03:46:36;;;;;;;27.13;3.83;;;20.00;41.80;;;;;;4970290;28;20079;-64
2023/11/09 03:49:02;;;;;;;36.10;3.60;;;20.00;41.00;;;;;;4968792;28;20123;-63
2023/11/09 03:51:29;;;;;;;32.92;3.85;;;20.00;40.90;;;;;;4971936;28;20183;-66
2023/11/09 03:53:56;;;;;;;23.23;3.38;;;20.00;40.70;;;;;;4971118;28;20111;-66
2023/11/09 03:56:23;;;;;;;24.67;3.50;;;20.00;40.50;;;;;;4969625;28;20121;-65
2023/11/09 03:58:51;;;;;;;22.95;3.20;;;20.00;40.30;;;;;;4969693;28;20547;-65
2023/11/09 04:01:19;;;;;;;24.73;3.60;;;19.90;40.60;;;;;;4972232;28;20092;-64
2023/11/09 04:03:46;;;;;;;21.65;2.80;;;19.90;40.40;;;;;;4969683;28;20103;-67
2023/11/09 04:06:17;;;;;;;14.07;2.55;;;19.90;40.10;;;;;;4970674;28;20136;-65
2023/11/09 04:08:47;;;;;;;25.63;3.65;;;19.90;40.10;;;;;;4969802;28;20077;-67
2023/11/09 04:11:14;;;;;;;16.15;3.00;;;19.90;39.90;;;;;;4978984;28;20111;-65
2023/11/09 04:13:41;;;;;;;15.52;2.60;;;19.90;39.70;;;;;;4970128;28;20111;-65
2023/11/09 04:16:08;;;;;;;17.80;2.78;;;19.90;40.00;;;;;;4969709;28;20142;-66
2023/11/09 04:18:37;;;;;;;10.88;2.05;;;19.90;40.40;;;;;;4967307;28;20079;-65
2023/11/09 04:21:04;;;;;;;13.55;2.17;;;19.80;40.80;;;;;;4971129;28;20119;-65
2023/11/09 04:23:30;;;;;;;18.23;2.22;;;19.80;40.80;;;;;;4966162;28;20119;-65
2023/11/09 04:25:57;;;;;;;8.38;2.38;;;19.80;41.00;;;;;;4965776;28;20167;-64
2023/11/09 04:28:23;;;;;;;14.73;2.15;;;19.80;40.70;;;;;;4967002;28;20101;-65
2023/11/09 04:30:51;;;;;;;10.35;2.13;;;19.70;40.90;;;;;;4965977;28;20076;-66
2023/11/09 04:33:17;;;;;;;12.68;2.00;;;19.70;40.70;;;;;;4968267;28;20090;-63
2023/11/09 04:35:46;;;;;;;9.52;1.80;;;19.70;40.90;;;;;;4967194;28;20106;-64
2023/11/09 04:38:15;;;;;;;10.23;1.90;;;19.70;40.90;;;;;;4967693;28;20551;-60
2023/11/09 04:40:44;;;;;;;8.82;1.70;;;19.70;40.80;;;;;;4967924;28;20083;-63
2023/11/09 04:43:15;;;;;;;15.48;2.00;;;19.60;41.30;;;;;;4966352;28;20095;-63
2023/11/09 04:45:42;;;;;;;11.60;1.77;;;19.60;42.10;;;;;;4970022;28;20085;-64
2023/11/09 04:48:19;;;;;;;14.80;1.77;;;19.60;42.70;;;;;;4967969;28;20075;-65
2023/11/09 04:51:00;;;;;;;12.93;1.92;;;19.60;43.50;;;;;;4968877;28;20084;-66
2023/11/09 04:53:40;;;;;;;23.63;2.50;;;19.60;44.60;;;;;;4966662;28;20618;-63
2023/11/09 04:56:19;;;;;;;15.38;2.38;;;19.50;45.20;;;;;;4967104;28;20088;-66
2023/11/09 04:59:01;;;;;;;18.70;2.38;;;19.50;46.00;;;;;;4967615;28;20112;-67
2023/11/09 05:06:59;;;;;;;28.73;2.92;;;19.30;47.40;;;;;;4966290;28;19982;-64
2023/11/09 05:09:27;;;;;;;17.33;2.95;;;19.30;47.70;;;;;;4967140;28;20098;-64
2023/11/09 05:11:54;;;;;;;22.63;3.05;;;19.20;47.90;;;;;;4965801;28;20179;-64
2023/11/09 05:14:20;;;;;;;25.10;4.13;;;19.10;48.20;;;;;;4966371;28;20155;-62
2023/11/09 05:16:48;;;;;;;19.90;3.97;;;19.10;48.60;;;;;;4965456;28;20084;-68
2023/11/09 05:19:14;;;;;;;30.83;6.57;;;19.00;48.90;;;;;;4967086;28;20135;-63
2023/11/09 05:21:41;;;;;;;43.67;9.80;;;19.00;49.30;;;;;;4968289;28;20167;-64
2023/11/09 05:24:08;;;;;;;31.27;7.18;;;18.80;49.40;;;;;;4967894;28;20183;-62
2023/11/09 05:26:36;;;;;;;29.17;7.50;;;18.80;49.20;;;;;;4965477;28;20100;-65
2023/11/09 05:29:05;;;;;;;41.35;6.72;;;18.70;49.40;;;;;;4969938;28;20084;-60
2023/11/09 05:31:35;;;;;;;22.30;5.28;;;18.70;49.80;;;;;;4968478;28;20103;-61
2023/11/09 05:34:03;;;;;;;32.30;5.93;;;18.60;50.10;;;;;;4968441;28;20096;-62
2023/11/09 05:36:34;;;;;;;36.60;6.25;;;18.60;50.30;;;;;;4965769;28;20598;-64
2023/11/09 05:39:03;;;;;;;26.73;6.13;;;18.50;50.60;;;;;;4969748;28;20089;-63
2023/11/09 05:41:31;;;;;;;34.10;6.50;;;18.40;50.80;;;;;;4963407;28;20254;-63
2023/11/09 05:43:59;;;;;;;30.55;5.97;;;18.30;51.30;;;;;;4968185;28;20538;-61
2023/11/09 05:46:25;;;;;;;26.70;6.53;;;18.20;52.00;;;;;;4968342;28;20076;-62
2023/11/09 05:48:52;;;;;;;24.17;6.63;;;18.20;52.50;;;;;;4968506;28;20077;-59
2023/11/09 05:51:23;;;;;;;30.88;5.75;;;18.10;53.00;;;;;;4970281;28;20073;-58
2023/11/09 05:53:50;;;;;;;35.60;5.60;;;18.10;53.60;;;;;;4968432;28;20077;-63
2023/11/09 05:56:17;;;;;;;24.48;5.47;;;18.00;54.20;;;;;;4969255;28;20144;-63
2023/11/09 05:58:44;;;;;;;38.30;5.68;;;17.90;54.90;;;;;;4968515;28;20167;-62
2023/11/09 06:01:11;;;;;;;21.95;4.95;;;17.90;55.60;;;;;;4967772;28;20158;-61
2023/11/09 06:03:37;;;;;;;37.42;5.82;;;17.90;56.10;;;;;;4968556;28;20100;-60
2023/11/09 06:06:05;;;;;;;22.08;5.38;;;17.90;56.60;;;;;;4968476;28;20418;-63
2023/11/09 06:08:36;;;;;;;24.17;5.15;;;17.90;56.90;;;;;;4970199;28;20286;-61
2023/11/09 06:11:04;;;;;;;21.30;4.70;;;17.80;57.10;;;;;;4967486;28;20081;-61
2023/11/09 06:13:31;;;;;;;25.73;4.07;;;17.80;57.50;;;;;;4968742;28;20280;-61
2023/11/09 06:15:58;;;;;;;14.90;4.07;;;17.80;57.80;;;;;;4971349;28;20091;-64
2023/11/09 06:18:25;;;;;;;15.52;4.45;;;17.70;57.70;;;;;;4971117;28;20486;-66
2023/11/09 06:20:53;;;;;;;16.20;3.40;;;17.80;57.50;;;;;;4971290;28;20080;-65
2023/11/09 06:23:20;;;;;;;13.25;2.88;;;17.80;57.00;;;;;;4971889;28;20102;-66
2023/11/09 06:25:48;;;;;;;18.90;2.53;;;17.80;56.20;;;;;;4971747;28;20100;-63
2023/11/09 06:28:15;;;;;;;17.00;2.70;;;17.80;55.70;;;;;;4969433;28;20239;-64
2023/11/09 06:30:41;;;;;;;18.35;2.40;;;17.90;55.50;;;;;;4968679;28;20481;-65
2023/11/09 06:33:09;;;;;;;11.70;2.13;;;18.00;55.30;;;;;;4971351;28;20081;-66
2023/11/09 06:35:35;;;;;;;11.57;2.08;;;18.00;55.40;;;;;;4968983;28;20104;-63
2023/11/09 06:38:02;;;;;;;13.63;2.33;;;18.10;55.60;;;;;;4964792;28;20089;-65
2023/11/09 06:40:31;;;;;;;16.02;2.50;;;18.10;55.70;;;;;;4971206;28;20147;-65
2023/11/09 06:42:58;;;;;;;13.77;2.20;;;18.10;55.60;;;;;;4971313;28;20157;-63
2023/11/09 06:45:24;;;;;;;11.73;3.33;;;18.10;55.70;;;;;;4971673;28;20080;-64
2023/11/09 06:47:51;;;;;;;14.20;2.58;;;18.10;55.80;;;;;;4970367;28;20091;-66
2023/11/09 06:50:19;;;;;;;11.25;2.38;;;18.10;55.80;;;;;;4971578;28;20085;-63
2023/11/09 06:52:46;;;;;;;13.90;2.22;;;18.10;55.90;;;;;;4971933;28;20617;-65
2023/11/09 06:55:16;;;;;;;17.77;2.65;;;18.10;55.80;;;;;;4971697;28;20113;-64
2023/11/09 06:57:45;;;;;;;17.58;3.85;;;18.10;55.90;;;;;;4968729;28;20085;-64
2023/11/09 07:00:13;;;;;;;17.15;6.25;;;18.10;55.70;;;;;;4968766;28;20236;-63
2023/11/09 07:02:41;;;;;;;32.17;19.48;;;18.00;55.40;;;;;;4969569;28;20601;-65
2023/11/09 07:05:10;;;;;;;30.42;10.23;;;18.00;55.30;;;;;;4972304;28;20077;-63
2023/11/09 07:07:38;;;;;;;31.77;13.57;;;17.90;54.90;;;;;;4970822;28;20081;-65
2023/11/09 07:10:07;;;;;;;19.98;11.30;;;17.90;54.40;;;;;;4972671;28;20069;-66
2023/11/09 07:12:35;;;;;;;22.00;16.80;;;17.80;53.20;;;;;;4971417;28;20077;-66
2023/11/09 07:15:02;;;;;;;26.52;18.73;;;17.80;52.30;;;;;;4971696;28;20085;-67
2023/11/09 07:17:29;;;;;;;20.05;4.88;;;17.70;51.60;;;;;;4969974;28;20085;-67
2023/11/09 07:19:55;;;;;;;14.23;4.28;;;17.60;51.50;;;;;;4970485;28;20113;-65
2023/11/09 07:22:22;;;;;;;19.13;4.00;;;17.60;51.10;;;;;;4970631;28;20116;-66
2023/11/09 07:25:00;;;;;;;19.95;3.95;;;17.60;50.60;;;;;;4971086;28;20081;-65
2023/11/09 07:27:27;;;;;;;18.90;3.90;;;17.50;49.90;;;;;;4969985;28;20092;-64
2023/11/09 07:29:54;;;;;;;18.38;3.92;;;17.50;48.90;;;;;;4970820;28;20085;-64
2023/11/09 07:32:20;;;;;;;14.05;3.95;;;17.40;47.20;;;;;;4969898;28;20083;-61
2023/11/09 07:34:48;;;;;;;20.30;4.40;;;17.40;46.40;;;;;;4970780;28;20084;-61
2023/11/09 07:37:15;;;;;;;18.75;4.35;;;17.40;46.20;;;;;;4970590;28;20134;-62
2023/11/09 07:39:43;;;;;;;18.63;4.20;;;17.30;45.80;;;;;;4970423;28;20073;-64
2023/11/09 07:42:10;;;;;;;18.90;4.70;;;17.30;45.30;;;;;;4969919;28;20086;-62
2023/11/09 07:44:36;;;;;;;27.70;3.88;;;17.30;45.20;;;;;;4970347;28;20073;-65
2023/11/09 07:47:03;;;;;;;16.23;4.03;;;17.30;44.80;;;;;;4969795;28;20100;-62
2023/11/09 07:49:30;;;;;;;18.20;4.22;;;17.20;43.90;;;;;;4970126;28;20085;-64
2023/11/09 07:52:00;;;;;;;25.88;3.85;;;17.30;43.70;;;;;;4969835;28;20082;-62
2023/11/09 07:54:29;;;;;;;17.42;3.92;;;17.20;43.00;;;;;;4971237;28;20081;-60
2023/11/09 07:56:58;;;;;;;19.90;4.45;;;17.20;42.60;;;;;;4970288;28;20077;-65
2023/11/09 07:59:26;;;;;;;21.33;4.43;;;17.20;42.60;;;;;;4969210;28;20085;-62
2023/11/09 08:01:53;;;;;;;23.27;4.38;;;17.20;42.10;;;;;;4969403;28;20559;-64
2023/11/09 08:04:21;;;;;;;17.60;4.30;;;17.20;41.80;;;;;;4970105;28;20132;-63
2023/11/09 08:06:47;;;;;;;13.55;3.80;;;17.20;41.10;;;;;;4970173;28;20128;-65
2023/11/09 08:09:15;;;;;;;13.68;3.13;;;17.20;40.90;;;;;;4970531;28;20462;-63
2023/11/09 08:11:43;;;;;;;17.00;3.22;;;17.20;40.20;;;;;;4969830;28;20081;-62
2023/11/09 08:14:10;;;;;;;15.07;2.80;;;17.20;39.90;;;;;;4970179;28;20117;-63
2023/11/09 08:16:36;;;;;;;13.93;2.58;;;17.20;39.70;;;;;;4969606;28;20081;-64
2023/11/09 08:19:03;;;;;;;13.10;2.20;;;17.20;39.50;;;;;;4970169;28;20120;-62
2023/11/09 08:21:35;;;;;;;7.65;1.73;;;17.20;39.20;;;;;;4970214;28;20142;-61
2023/11/09 08:24:02;;;;;;;11.55;2.50;;;17.10;39.00;;;;;;4970371;28;20097;-67
2023/11/09 08:26:29;;;;;;;26.15;2.88;;;17.10;38.90;;;;;;4969174;28;20088;-66
2023/11/09 08:28:57;;;;;;;13.73;2.40;;;17.10;38.80;;;;;;4968473;28;20105;-61
2023/11/09 08:31:25;;;;;;;13.65;2.58;;;17.10;39.10;;;;;;4969496;28;20108;-62
2023/11/09 08:33:54;;;;;;;13.70;2.25;;;17.10;38.70;;;;;;4971490;28;20121;-63
2023/11/09 08:36:21;;;;;;;13.57;2.25;;;17.10;38.70;;;;;;4968790;28;20101;-63
2023/11/09 08:38:47;;;;;;;16.27;2.10;;;17.10;38.80;;;;;;4969167;28;20148;-61
2023/11/09 08:41:15;;;;;;;13.40;1.98;;;17.10;38.60;;;;;;4969432;28;20147;-61
2023/11/09 08:43:42;;;;;;;6.07;1.80;;;17.10;38.70;;;;;;4969553;28;20184;-63
2023/11/09 08:46:10;;;;;;;11.32;2.22;;;17.10;38.70;;;;;;4969575;28;20078;-61
2023/11/09 08:48:40;;;;;;;8.43;1.58;;;17.00;38.90;;;;;;4970290;28;20556;-63
2023/11/09 08:51:11;;;;;;;10.27;2.20;;;17.00;38.60;;;;;;4970702;28;20085;-62
2023/11/09 08:53:37;;;;;;;11.35;2.22;;;17.00;38.70;;;;;;4970561;28;20081;-62
2023/11/09 08:56:05;;;;;;;8.38;2.33;;;17.00;39.10;;;;;;4969643;28;20131;-63
2023/11/09 08:58:36;;;;;;;10.10;2.20;;;16.90;39.10;;;;;;4969241;28;22645;-61
2023/11/09 09:01:06;;;;;;;8.07;1.83;;;16.90;39.10;;;;;;4969494;28;20486;-64
2023/11/09 09:03:36;;;;;;;8.52;1.80;;;16.90;39.50;;;;;;4966987;28;20113;-64
2023/11/09 09:06:04;;;;;;;6.80;2.10;;;16.90;39.60;;;;;;4969524;28;20160;-62
2023/11/09 09:08:30;;;;;;;7.05;1.60;;;16.90;39.90;;;;;;4968992;28;20078;-61
2023/11/09 09:10:57;;;;;;;11.80;1.90;;;16.80;40.00;;;;;;4968566;28;20571;-66
2023/11/09 09:13:25;;;;;;;7.05;1.80;;;16.80;40.30;;;;;;4968920;28;20147;-65
2023/11/09 09:15:53;;;;;;;6.10;1.50;;;16.80;40.70;;;;;;4968952;28;20090;-63
2023/11/09 09:18:24;;;;;;;6.65;1.67;;;16.80;40.70;;;;;;4967876;28;20088;-66
2023/11/09 09:20:50;;;;;;;9.52;1.75;;;16.80;41.10;;;;;;4968746;28;20084;-63
2023/11/09 09:23:17;;;;;;;7.55;1.75;;;16.80;41.30;;;;;;4968418;28;20101;-63
2023/11/09 09:25:44;;;;;;;10.77;1.60;;;16.80;41.20;;;;;;4968654;28;20398;-62
2023/11/09 09:28:11;;;;;;;8.77;1.52;;;16.70;41.20;;;;;;4968665;28;20121;-65
2023/11/09 09:30:38;;;;;;;10.00;1.70;;;16.70;40.80;;;;;;4968645;28;20177;-64
2023/11/09 09:33:04;;;;;;;9.18;1.55;;;16.70;41.50;;;;;;4968992;28;20538;-64
2023/11/09 09:35:32;;;;;;;9.07;1.70;;;16.70;41.30;;;;;;4968880;28;20139;-65
2023/11/09 09:38:02;;;;;;;7.00;1.80;;;16.70;41.20;;;;;;4968362;28;20077;-63
2023/11/09 09:40:32;;;;;;;9.55;1.40;;;16.60;41.00;;;;;;4969180;28;20662;-63
2023/11/09 09:43:00;;;;;;;10.93;1.85;;;16.60;41.50;;;;;;4969388;28;20092;-64
2023/11/09 09:45:30;;;;;;;6.50;1.90;;;16.60;40.80;;;;;;4969787;28;20081;-62
2023/11/09 09:47:59;;;;;;;7.80;1.73;;;16.60;40.80;;;;;;4971506;28;20489;-61
2023/11/09 09:50:27;;;;;;;10.73;2.08;;;16.60;40.60;;;;;;4973135;28;20127;-62
2023/11/09 09:52:56;;;;;;;9.02;1.48;;;16.50;41.00;;;;;;4972131;28;20549;-65
2023/11/09 09:55:24;;;;;;;13.57;1.85;;;16.40;41.00;;;;;;4974932;28;20112;-64
2023/11/09 09:57:51;;;;;;;8.30;1.63;;;16.40;41.50;;;;;;4972565;28;20081;-63
2023/11/09 10:00:38;;;;;;;10.07;2.00;;;16.40;41.60;;;;;;4972503;28;20170;-60
2023/11/09 10:03:06;;;;;;;8.40;1.77;;;16.40;41.50;;;;;;4972165;28;20084;-63
2023/11/09 10:05:35;;;;;;;4.85;1.63;;;16.40;41.50;;;;;;4972732;28;20442;-64
2023/11/09 10:08:13;;;;;;;10.25;2.03;;;16.30;41.80;;;;;;4971690;28;20078;-63
2023/11/09 10:10:47;;;;;;;13.30;2.35;;;16.30;42.20;;;;;;4972485;28;20584;-65
2023/11/09 10:13:14;;;;;;;9.80;2.30;;;16.30;42.30;;;;;;4972337;28;20501;-62
2023/11/09 10:15:43;;;;;;;6.95;1.90;;;16.20;42.20;;;;;;4973193;28;20567;-62
2023/11/09 10:18:12;;;;;;;8.80;2.35;;;16.20;42.50;;;;;;4971915;28;20459;-63
2023/11/09 10:20:42;;;;;;;10.45;2.10;;;16.20;42.20;;;;;;4972496;28;20087;-63
2023/11/09 10:23:11;;;;;;;8.77;2.70;;;16.10;42.40;;;;;;4971939;28;20090;-63
2023/11/09 10:25:41;;;;;;;8.50;2.10;;;16.10;42.10;;;;;;4971876;28;20120;-61
2023/11/09 10:28:13;;;;;;;8.07;1.98;;;16.10;42.10;;;;;;4971545;28;20442;-63
2023/11/09 10:30:44;;;;;;;14.38;2.10;;;16.10;41.90;;;;;;4972905;28;20081;-65
2023/11/09 10:33:17;;;;;;;6.90;2.30;;;16.00;41.70;;;;;;4972365;28;20185;-66
2023/11/09 10:35:46;;;;;;;6.68;2.03;;;16.00;41.60;;;;;;4971469;28;20164;-62
2023/11/09 10:38:17;;;;;;;11.57;2.40;;;16.00;41.40;;;;;;4971645;28;20438;-63
2023/11/09 10:40:44;;;;;;;6.47;1.90;;;16.00;41.30;;;;;;4972215;28;20113;-61
2023/11/09 10:43:15;;;;;;;10.05;2.10;;;16.00;41.30;;;;;;4972070;28;20094;-63
2023/11/09 10:45:45;;;;;;;6.75;1.70;;;16.00;41.30;;;;;;4972497;28;20073;-63
2023/11/09 10:48:22;;;;;;;9.05;1.98;;;15.90;41.40;;;;;;4971409;28;20077;-61
2023/11/09 10:50:50;;;;;;;10.55;2.13;;;16.00;41.80;;;;;;4972250;28;20440;-62
2023/11/09 10:53:21;;;;;;;8.50;2.03;;;15.90;42.20;;;;;;4971282;28;20080;-65
2023/11/09 10:55:53;;;;;;;8.75;1.77;;;15.90;42.70;;;;;;4971626;28;20184;-62
2023/11/09 10:58:21;;;;;;;7.45;2.03;;;15.90;42.90;;;;;;4971615;28;20150;-64
2023/11/09 11:00:53;;;;;;;14.57;1.98;;;15.90;43.20;;;;;;4971864;28;20085;-64
2023/11/09 11:03:27;;;;;;;10.63;1.80;;;15.90;43.40;;;;;;4971527;28;20093;-63
2023/11/09 11:06:36;;;;;;;13.43;1.90;;;15.90;43.60;;;;;;4966854;28;20488;-62
2023/11/09 11:09:18;;;;;;;10.18;2.17;;;15.80;43.70;;;;;;4963520;28;20089;-64
2023/11/09 11:11:49;;;;;;;10.43;1.70;;;15.80;43.90;;;;;;4971537;28;20115;-63
2023/11/09 11:14:19;;;;;;;6.65;1.95;;;15.80;43.70;;;;;;4970727;28;20212;-63
2023/11/09 11:16:53;;;;;;;9.65;1.80;;;15.80;43.80;;;;;;4971762;28;20128;-65
2023/11/09 11:19:42;;;;;;;11.20;1.85;;;15.80;44.00;;;;;;4971165;28;20098;-61
2023/11/09 11:22:27;;;;;;;6.18;1.42;;;15.80;44.00;;;;;;4970490;28;20077;-63
2023/11/09 11:25:06;;;;;;;7.13;1.63;;;15.80;44.40;;;;;;4970928;28;20224;-60
2023/11/09 11:27:54;;;;;;;9.68;1.52;;;15.70;44.50;;;;;;4970652;28;20215;-62
2023/11/09 11:30:28;;;;;;;6.97;1.75;;;15.70;44.30;;;;;;4966053;28;20081;-63
2023/11/09 11:32:59;;;;;;;6.28;1.80;;;15.60;44.10;;;;;;4971771;28;20112;-62
2023/11/09 11:35:48;;;;;;;10.85;1.80;;;15.60;44.10;;;;;;4970908;28;20160;-63
2023/11/09 11:38:17;;;;;;;5.15;1.50;;;15.50;44.10;;;;;;4970274;28;20118;-61
2023/11/09 11:40:50;;;;;;;6.30;1.58;;;15.50;44.10;;;;;;4969356;28;20120;-65
2023/11/09 11:43:17;;;;;;;7.85;1.60;;;15.50;43.90;;;;;;4970650;28;20120;-65
2023/11/09 11:45:48;;;;;;;9.10;1.92;;;15.50;44.10;;;;;;4971177;28;20550;-65
2023/11/09 11:48:28;;;;;;;9.10;1.75;;;15.40;44.10;;;;;;4970844;28;20470;-61
2023/11/09 11:51:06;;;;;;;12.70;2.00;;;15.40;43.90;;;;;;4970524;28;20546;-63
2023/11/09 11:53:34;;;;;;;8.63;1.88;;;15.40;43.90;;;;;;4970657;28;20144;-64
2023/11/09 11:56:11;;;;;;;6.78;1.83;;;15.40;43.80;;;;;;4970446;28;20078;-63
2023/11/09 11:58:55;;;;;;;6.95;1.65;;;15.40;44.10;;;;;;4970381;28;20091;-64
2023/11/09 12:01:22;;;;;;;6.97;1.95;;;15.40;43.50;;;;;;4968428;28;21321;-62
2023/11/09 12:03:53;;;;;;;3.28;1.50;;;15.30;43.60;;;;;;4970581;28;20128;-63
2023/11/09 12:06:22;;;;;;;9.65;2.13;;;15.30;43.70;;;;;;4970261;28;20083;-65
2023/11/09 12:09:00;;;;;;;7.50;1.80;;;15.30;44.10;;;;;;4970064;28;20590;-64
2023/11/09 12:11:33;;;;;;;9.45;1.85;;;15.30;44.20;;;;;;4969575;28;20093;-65
2023/11/09 12:14:01;;;;;;;4.68;1.42;;;15.20;44.50;;;;;;4969905;28;20633;-63
2023/11/09 12:16:29;;;;;;;10.68;1.60;;;15.20;44.90;;;;;;4970015;28;20094;-64
2023/11/09 12:18:57;;;;;;;10.13;1.55;;;15.20;45.00;;;;;;4970037;28;20082;-65
2023/11/09 12:21:27;;;;;;;5.75;1.30;;;15.20;45.00;;;;;;4970022;28;20089;-63
2023/11/09 12:23:56;;;;;;;8.27;1.58;;;15.20;45.10;;;;;;4970596;28;20097;-62
2023/11/09 12:26:24;;;;;;;2.70;1.38;;;15.20;45.30;;;;;;4970112;28;20090;-62
2023/11/09 12:28:55;;;;;;;14.35;3.00;;;15.20;45.30;;;;;;4968422;28;20101;-64
2023/11/09 12:31:24;;;;;;;5.38;1.85;;;15.20;45.30;;;;;;4970035;28;20082;-62
2023/11/09 12:34:05;;;;;;;6.95;1.95;;;15.10;45.00;;;;;;4970498;28;20139;-64
2023/11/09 12:36:38;;;;;;;10.35;2.65;;;15.20;45.10;;;;;;4970910;28;20561;-65
2023/11/09 12:39:45;;;;;;;12.63;2.70;;;15.10;45.10;;;;;;4970095;28;20090;-63
2023/11/09 12:42:05;;;;;;;9.48;2.55;;;15.10;45.20;;;;;;4970745;28;20101;-63
2023/11/09 12:44:42;;;;;;;9.38;2.22;;;15.10;44.80;;;;;;4969600;28;20112;-60
2023/11/09 12:47:08;;;;;;;;;;;15.10;44.70;;;;;;4969039;28;20090;-62
2023/11/09 12:49:35;;;;;;;8.30;1.58;;;15.10;44.50;;;;;;4969355;28;19988;-64
2023/11/09 12:52:05;;;;;;;6.80;1.52;;;15.00;45.10;;;;;;4970007;28;20080;-64
2023/11/09 12:54:32;;;;;;;5.13;1.55;;;15.00;45.10;;;;;;4969667;28;20526;-64